Montreal, Missouri
Current Conditions -  °F | °C
As of 2:15 PM on Sunday 23 Nov 2014 (Local Time) from KH21 Reporting Station
Drizzle Drizzle  
Wind Chill: 54°   Ceiling: 500
Heat Index: 54°   Visibility: 3mi
Dew Point: 54°   Wind: 0mph
Humidity: 100%   Direction: NA
Pressure: 29.36"   Gusts: NA
Location:  37.97°N, 92.59°W
Report Text: KH21 232015Z AUTO 00000KT 3SM +DZ OVC005 12/12 A2936 RMK AO2
Loading
Personal Weather Stations






























Interactive Weather Map New forecast layout! Learn more

10-Day Weather Forecast

Advertisements
Track Severe Weather on mobile